Estación Meteorológica Peña el Pijo (Robertgarden) [ 01/30/23 15:07:50 CET ]

Fecha Hora Presion(HPa) Temp (°C) Humedad % Rocio (°C) Viento ( m/s) Direccion Lluvia 1Hora(mm) Lluvia 24H(mm) LLuvia Total(mm)
2012-Jun-15 01:01:15 1014.100 13.6 55 4.7         159.54
2012-Jun-15 02:01:19 1013.900 13.3 56 4.7         159.54
2012-Jun-15 03:03:20 1013.600 12.4 58 4.3         159.54
2012-Jun-15 04:01:18 1013.400 11.9 58 3.9         159.54
2012-Jun-15 05:01:16 1013.400 11.6 57 3.3         159.54
2012-Jun-15 06:01:16 1013.300 10.5 62 3.5         159.54
2012-Jun-15 07:01:16 1013.500 9.8 64 3.3         159.54
2012-Jun-15 08:01:16 1014.000 13.6 61 6.2         159.54
2012-Jun-15 09:01:12 1014.200 21.3 47 9.5         159.54
2012-Jun-15 10:01:18 1014.300 26.2 32 8.1         159.54
2012-Jun-15 11:01:11 1014.200 30.6 25 8.1         159.54
2012-Jun-15 12:01:13 1013.800 32.2 21 7.1 2.1 ENE     159.54
2012-Jun-15 13:01:17 1013.800 33.3 20 7.3         159.54
2012-Jun-15 14:01:17 1013.500 33.7 19 6.7         159.54
2012-Jun-15 15:01:16 1013.200 34.3 19 7.2 1.9 NE     159.54
2012-Jun-15 16:01:17 1013.200 35.5 18 7.2         159.54
2012-Jun-15 17:01:14 1012.800 34.3 19 7.2         159.54
2012-Jun-15 18:01:14 1012.800 34.1 20 8.0         159.54
2012-Jun-15 19:01:13 1012.800 30.9 24 7.8 1.1 E     159.54
2012-Jun-15 20:01:18 1013.200 27.6 30 8.5 2.2 E     159.54
2012-Jun-15 21:01:14 1013.800 25.1 35 8.5         159.54
2012-Jun-15 22:01:17 1014.200 22.4 39 7.7         159.54
2012-Jun-15 23:01:14 1015.200 19.3 48 8.0         159.54

Temperatura Máxima:35°    Temperatura Mínima:
Presión Máxima:1015.200 Hpa    Presión Mínima:1012.800 Hpa


Volver